Harpers Ferry, West Virginia
Current Conditions -  °F | °C
As of 3:53 AM on Wednesday 26 Nov 2014 (Local Time) from KMRB Reporting Station
Light Rain Light Rain  
Wind Chill: 37°   Ceiling: 4500
Heat Index: 42°   Visibility: 10mi
Dew Point: 29°   Wind: 9mph
Humidity: 60%   Direction: 360°N
Pressure: 30.11"   Gusts: NA
Location:  39.33°N, 77.74°W
Report Text: KMRB 260853Z AUTO 36008KT 10SM -RA BKN045 OVC055 06/M02 A3011 RMK AO2 RAB47 SLP199 P0000 60000 T00561017 58018 TSNO
Loading
Personal Weather Stations






























Interactive Weather Map New forecast layout! Learn more

10-Day Weather Forecast

Advertisements
Track Severe Weather on mobile